Flight Information

DEPARTURE
RENO, NV
Elevation:
4414
Runways:
16L/34R - 9000x150 - CONC-G
16R/34L - 11001x150 - CONC-G
7/25 - 6102x150 - CONC-G
Active PE Departure:
34R - 34L
Current PE ATIS:
G
Altimeter:
29.65
Remarks:
V F R DEPARTURES CONTACT CLEARANCE DELIVERY, ADVISE ON COURSE HEADING, ALTITUDE, AND IF FLIGHT FOLLOWING IS REQUESTED.
ATIS:
135.8 775-348-1550
Clearance Delivery:
124.9
Ground:
121.9
Tower:
RENO TOWER 118.7
DESTINATION
,
Elevation:
TPA:
1000 (est.)


6751.3 NM70° True-16° Var53° HDG

Flight Plan:
(click to file on line)

1. Type
2. Aircraft Identification
3. Aircraft Type / Special Equipment
4. True Airspeed
kts
5. Departure Airport
(ICAO code)
6. Arriving Airport
(ICAO code)
7. Cruising Altitude
ft
8. Alternate Airport
(ICAO code)
9. Route of Flight
10. Remarks


00:00:00 Departure ATIS: Destination ATIS:

Clearance Limit:
Route:
Altitude: Expect in minutes
Frequency:
Transponder: (7500 Hijack / 7600 Lost Comms / 7700 Emergency)


KRNO 251903Z 33011KT 1 1/2SM R16R/6000VP6000FT -SN BR OVC016 M03/M05 A2965 RMK AO2 P0001 T10281050 $
Time: 2021-01-25T19:03:00Z
1611601926
Winds: 330 @ 11 kts
Visibility: 1.5 sm
Clouds (AGL): OVC 1600
Temperature: -2.8 C
Dew Point: -5.0 C
Pressure: 29.648623 in Hgbr


Notes:

Data extracted from FAA Digital Chart Supplement. Effective: 0901Z Thursday, Dec 31, 2020 to 0901Z Thursday, Jan 28, 2021
Current ATIS data is provided courtisy of PilotEdge.